Time;durP1;ratioP1;P1;durP2;ratioP2;P2;SDS_P1;SDS_P2;PMS_P1;PMS_P2;Temp;Humidity;BMP_temperature;BMP_pressure;BME280_temperature;BME280_humidity;BME280_pressure;Samples;Min_cycle;Max_cycle;Signal;HPM_P1;HPM_P2
2022/10/02 01:32:31;;;;;;;17.90;16.80;;;14.10;99.90;;;;;;5249189;23;20507;-73
2022/10/02 01:35:00;;;;;;;16.87;15.83;;;14.10;99.90;;;;;;5010647;28;20489;-73
2022/10/02 01:37:30;;;;;;;16.80;15.90;;;14.20;99.90;;;;;;5011104;28;20512;-73
2022/10/02 01:40:02;;;;;;;16.33;15.33;;;14.20;99.90;;;;;;5011330;28;20485;-72
2022/10/02 01:42:29;;;;;;;14.93;14.23;;;14.30;99.90;;;;;;5011837;28;20456;-72
2022/10/02 01:44:56;;;;;;;15.57;14.87;;;14.40;99.90;;;;;;5011212;28;20458;-73
2022/10/02 01:47:30;;;;;;;15.50;14.80;;;14.40;99.90;;;;;;5011388;28;20453;-72
2022/10/02 01:50:10;;;;;;;15.97;15.30;;;14.50;99.90;;;;;;5011145;28;20810;-73
2022/10/02 01:52:46;;;;;;;16.47;15.57;;;14.60;99.90;;;;;;5011614;28;20453;-72
2022/10/02 01:55:26;;;;;;;15.73;14.93;;;14.60;99.90;;;;;;5011290;28;20523;-73
2022/10/02 01:58:06;;;;;;;15.50;14.80;;;14.70;99.90;;;;;;5011204;28;20446;-73
2022/10/02 02:00:46;;;;;;;15.57;14.70;;;14.80;99.90;;;;;;5011371;28;20477;-73
2022/10/02 02:03:21;;;;;;;15.50;14.80;;;14.90;99.90;;;;;;5011295;28;20449;-74
2022/10/02 02:05:56;;;;;;;15.90;15.20;;;14.90;99.90;;;;;;5011301;28;20445;-73
2022/10/02 02:08:30;;;;;;;15.60;14.80;;;14.90;99.90;;;;;;5011139;28;20979;-73
2022/10/02 02:11:05;;;;;;;15.60;14.80;;;15.00;99.90;;;;;;5010976;28;20457;-73
2022/10/02 02:13:40;;;;;;;15.77;15.07;;;15.00;99.90;;;;;;5010573;28;20485;-73
2022/10/02 02:16:19;;;;;;;15.73;14.93;;;15.00;99.90;;;;;;5011050;28;20489;-74
2022/10/02 02:18:51;;;;;;;15.57;14.60;;;15.10;99.90;;;;;;5010743;28;20450;-73
2022/10/02 02:21:24;;;;;;;15.43;14.53;;;15.00;99.90;;;;;;5010682;28;20445;-74
2022/10/02 02:23:53;;;;;;;15.73;14.87;;;15.10;99.90;;;;;;5011113;28;20572;-73
2022/10/02 02:26:20;;;;;;;15.63;14.53;;;15.10;99.90;;;;;;5010689;28;20446;-73
2022/10/02 02:28:51;;;;;;;16.80;15.70;;;15.10;99.90;;;;;;5002329;28;20936;-73
2022/10/02 02:31:23;;;;;;;14.60;13.90;;;15.10;99.90;;;;;;5020922;28;20464;-74
2022/10/02 02:33:55;;;;;;;15.17;14.27;;;15.10;99.90;;;;;;5029854;28;20477;-73
2022/10/02 02:36:28;;;;;;;14.87;14.20;;;15.10;99.90;;;;;;5030331;28;20492;-74
2022/10/02 02:39:00;;;;;;;15.80;14.20;;;15.10;99.90;;;;;;5030233;28;20457;-73
2022/10/02 02:41:28;;;;;;;14.70;13.67;;;15.10;99.90;;;;;;5029947;28;20445;-73
2022/10/02 02:44:00;;;;;;;15.50;14.70;;;15.20;99.90;;;;;;5029901;28;20445;-73
2022/10/02 02:46:32;;;;;;;14.70;13.63;;;15.20;99.90;;;;;;5029936;28;20815;-73
2022/10/02 02:49:07;;;;;;;12.87;12.27;;;15.20;99.90;;;;;;5029647;28;20468;-73
2022/10/02 02:51:40;;;;;;;15.03;14.23;;;15.10;99.90;;;;;;5029711;28;20790;-73
2022/10/02 02:54:15;;;;;;;16.47;15.43;;;15.10;99.90;;;;;;5029866;28;20453;-74
2022/10/02 02:56:43;;;;;;;14.93;14.23;;;15.10;99.90;;;;;;5029558;28;20953;-74
2022/10/02 02:59:12;;;;;;;15.90;15.00;;;15.00;99.90;;;;;;5029574;28;20453;-74
2022/10/02 03:01:39;;;;;;;14.60;13.77;;;15.10;99.90;;;;;;5029671;28;20456;-74
2022/10/02 03:04:06;;;;;;;14.83;14.23;;;15.10;99.90;;;;;;5029448;28;20460;-74
2022/10/02 03:06:37;;;;;;;13.80;13.00;;;15.10;99.90;;;;;;5029137;28;20444;-75
2022/10/02 03:09:06;;;;;;;13.97;13.00;;;15.20;99.90;;;;;;5029295;28;20801;-75
2022/10/02 03:11:45;;;;;;;15.13;14.13;;;15.30;99.90;;;;;;5029316;28;20445;-74
2022/10/02 03:14:31;;;;;;;14.73;13.83;;;15.30;99.90;;;;;;5029161;28;20449;-75
2022/10/02 03:17:07;;;;;;;15.73;14.83;;;15.30;99.90;;;;;;5029202;28;20452;-74
2022/10/02 03:19:43;;;;;;;14.50;13.60;;;15.30;99.90;;;;;;5029483;28;20453;-75
2022/10/02 03:22:20;;;;;;;17.07;15.87;;;15.30;99.90;;;;;;5029463;28;20464;-74
2022/10/02 03:24:50;;;;;;;15.60;14.70;;;15.30;99.90;;;;;;5028819;28;20441;-74
2022/10/02 03:27:24;;;;;;;15.20;13.87;;;15.40;99.90;;;;;;5028831;28;20957;-74
2022/10/02 03:29:56;;;;;;;15.10;14.20;;;15.40;99.90;;;;;;5028848;28;20484;-74
2022/10/02 03:32:24;;;;;;;15.93;14.80;;;15.40;99.90;;;;;;5028971;28;20880;-73
2022/10/02 03:34:52;;;;;;;15.17;14.40;;;15.30;99.90;;;;;;5027159;28;20499;-74
2022/10/02 03:37:21;;;;;;;15.23;14.33;;;15.20;99.90;;;;;;5027815;28;20790;-73
2022/10/02 03:39:50;;;;;;;15.47;14.53;;;15.20;99.90;;;;;;5027831;28;20449;-73
2022/10/02 03:42:21;;;;;;;15.00;14.20;;;15.10;99.90;;;;;;5027892;28;20822;-73
2022/10/02 03:44:48;;;;;;;14.17;13.43;;;15.00;99.90;;;;;;5027747;28;20464;-74
2022/10/02 03:47:15;;;;;;;13.43;12.63;;;15.00;99.90;;;;;;5027580;28;20441;-74
2022/10/02 03:49:42;;;;;;;19.03;18.10;;;14.90;99.90;;;;;;5027761;28;20460;-74
2022/10/02 03:52:15;;;;;;;20.27;19.03;;;15.00;99.90;;;;;;5027944;28;20449;-74
2022/10/02 03:54:44;;;;;;;19.13;18.03;;;14.80;99.90;;;;;;5027622;28;20465;-73
2022/10/02 03:57:14;;;;;;;18.33;17.30;;;14.70;99.90;;;;;;5027909;28;20453;-73
2022/10/02 03:59:46;;;;;;;17.80;16.80;;;14.60;99.90;;;;;;5027607;28;20457;-72
2022/10/02 04:02:23;;;;;;;18.30;17.27;;;14.60;99.90;;;;;;5027466;28;20449;-73
2022/10/02 04:04:54;;;;;;;18.30;17.40;;;14.50;99.90;;;;;;5027566;28;20441;-73
2022/10/02 04:07:25;;;;;;;18.47;17.57;;;14.50;99.90;;;;;;5027405;28;20463;-74
2022/10/02 04:10:07;;;;;;;18.33;17.00;;;14.50;99.90;;;;;;5027718;28;20461;-75
2022/10/02 04:12:39;;;;;;;18.00;17.10;;;14.50;99.90;;;;;;5027587;28;20468;-74
2022/10/02 04:15:14;;;;;;;18.00;17.10;;;14.50;99.90;;;;;;5027621;28;20489;-74
2022/10/02 04:17:47;;;;;;;18.00;17.00;;;14.50;99.90;;;;;;5027544;28;20562;-74
2022/10/02 04:20:18;;;;;;;18.80;17.50;;;14.50;99.90;;;;;;5027326;28;20449;-75
2022/10/02 04:22:51;;;;;;;18.90;17.70;;;14.50;99.90;;;;;;5027419;28;20601;-74
2022/10/02 04:25:21;;;;;;;18.27;17.33;;;14.50;99.90;;;;;;5027431;28;20437;-74
2022/10/02 04:27:54;;;;;;;19.60;18.50;;;14.50;99.90;;;;;;5027284;28;20460;-74
2022/10/02 04:30:22;;;;;;;19.27;18.27;;;14.50;99.90;;;;;;5027548;28;20562;-74
2022/10/02 04:32:49;;;;;;;17.90;16.97;;;14.40;99.90;;;;;;4990923;28;1042408;-74
2022/10/02 04:35:19;;;;;;;19.20;17.53;;;14.40;99.90;;;;;;5028370;28;20491;-74
2022/10/02 04:38:07;;;;;;;18.20;17.20;;;14.40;99.90;;;;;;5028169;28;20470;-74
2022/10/02 04:40:49;;;;;;;18.43;17.03;;;14.40;99.90;;;;;;5028282;28;20449;-73
2022/10/02 04:43:27;;;;;;;18.73;17.73;;;14.40;99.90;;;;;;5028540;28;20661;-73
2022/10/02 04:46:07;;;;;;;19.43;18.53;;;14.40;99.90;;;;;;5030560;28;20444;-73
2022/10/02 04:49:06;;;;;;;19.60;18.40;;;14.40;99.90;;;;;;5031650;28;20452;-72
2022/10/02 04:51:47;;;;;;;20.23;18.87;;;14.40;99.90;;;;;;5031885;28;20469;-74
2022/10/02 04:54:32;;;;;;;20.10;18.80;;;14.40;99.90;;;;;;5031583;28;20461;-74
2022/10/02 04:57:17;;;;;;;20.50;19.40;;;14.50;99.90;;;;;;5031521;28;20484;-75
2022/10/02 05:00:04;;;;;;;20.33;19.33;;;14.50;99.90;;;;;;5031371;28;20951;-75
2022/10/02 05:02:43;;;;;;;20.70;19.10;;;14.40;99.90;;;;;;5031440;28;21072;-75
2022/10/02 05:05:23;;;;;;;20.10;19.00;;;14.40;99.90;;;;;;5031918;28;20449;-74
2022/10/02 05:08:11;;;;;;;20.20;19.10;;;14.40;99.90;;;;;;5045033;28;20451;-75
2022/10/02 05:10:50;;;;;;;20.20;18.90;;;14.40;99.90;;;;;;5052005;28;20930;-74
2022/10/02 05:13:34;;;;;;;20.97;19.77;;;14.30;99.90;;;;;;5051388;28;20514;-74
2022/10/02 05:16:23;;;;;;;21.33;20.13;;;14.20;99.90;;;;;;5051437;28;20737;-75
2022/10/02 05:19:11;;;;;;;21.00;19.90;;;14.20;99.90;;;;;;5051466;28;20450;-74
2022/10/02 05:21:56;;;;;;;24.00;22.23;;;14.20;99.90;;;;;;5051665;28;20812;-74
2022/10/02 05:24:40;;;;;;;22.03;20.57;;;14.30;99.90;;;;;;5052004;28;20455;-74
2022/10/02 05:27:35;;;;;;;21.97;20.77;;;14.30;99.90;;;;;;5052364;28;20440;-74
2022/10/02 05:30:08;;;;;;;22.90;21.50;;;14.40;99.90;;;;;;5051980;28;20448;-74
2022/10/02 05:32:57;;;;;;;23.30;21.60;;;14.40;99.90;;;;;;5051687;28;20451;-74
2022/10/02 05:35:39;;;;;;;23.93;22.40;;;14.50;99.90;;;;;;5052281;28;20484;-74
2022/10/02 05:38:17;;;;;;;22.80;21.30;;;14.60;99.90;;;;;;5052086;28;20455;-74
2022/10/02 05:40:52;;;;;;;24.33;23.03;;;14.60;99.90;;;;;;5051751;28;20455;-74
2022/10/02 05:43:24;;;;;;;23.50;22.17;;;14.60;99.90;;;;;;5051824;28;20447;-75
2022/10/02 05:45:55;;;;;;;24.13;22.63;;;14.60;99.90;;;;;;5052044;28;20440;-75
2022/10/02 05:48:27;;;;;;;25.03;23.20;;;14.60;99.90;;;;;;5051969;28;20484;-75
2022/10/02 05:51:02;;;;;;;24.40;23.00;;;14.60;99.90;;;;;;5052035;28;20440;-75
2022/10/02 05:53:36;;;;;;;24.97;23.57;;;14.50;99.90;;;;;;5051670;28;20890;-74
2022/10/02 05:56:10;;;;;;;23.97;22.57;;;14.50;99.90;;;;;;5051238;28;20490;-74
2022/10/02 05:58:44;;;;;;;24.73;23.23;;;14.50;99.90;;;;;;5051656;28;20459;-74
2022/10/02 06:01:16;;;;;;;26.70;25.20;;;14.40;99.90;;;;;;5051670;28;20444;-74
2022/10/02 06:03:48;;;;;;;28.60;26.43;;;14.30;99.90;;;;;;5037766;28;20449;-72
2022/10/02 06:06:20;;;;;;;27.07;25.50;;;14.30;99.90;;;;;;5031501;28;20499;-74
2022/10/02 06:08:49;;;;;;;27.80;26.03;;;14.30;99.90;;;;;;5046622;28;20823;-74
2022/10/02 06:11:22;;;;;;;28.10;26.33;;;14.20;99.90;;;;;;5051339;28;20818;-72
2022/10/02 06:13:52;;;;;;;28.10;26.20;;;14.20;99.90;;;;;;5051357;28;20448;-72
2022/10/02 06:16:24;;;;;;;27.90;26.00;;;14.20;99.90;;;;;;5044959;28;21013;-74
2022/10/02 06:18:55;;;;;;;27.53;25.90;;;14.20;99.90;;;;;;5039873;28;20441;-73
2022/10/02 06:21:31;;;;;;;28.27;26.37;;;14.10;99.90;;;;;;5041047;28;20485;-74
2022/10/02 06:24:02;;;;;;;27.27;25.67;;;14.10;99.90;;;;;;5037731;28;20468;-73
2022/10/02 06:26:39;;;;;;;28.90;27.20;;;14.10;99.90;;;;;;5039642;28;20447;-72
2022/10/02 06:29:13;;;;;;;29.80;27.43;;;14.10;99.90;;;;;;5040354;28;20814;-73
2022/10/02 06:31:46;;;;;;;28.03;26.43;;;14.10;99.90;;;;;;5050916;28;20830;-72
2022/10/02 06:34:14;;;;;;;26.73;25.03;;;14.10;99.90;;;;;;5050547;28;20913;-72
2022/10/02 06:37:11;;;;;;;26.63;24.83;;;14.10;99.90;;;;;;5051037;28;20491;-72
2022/10/02 06:39:52;;;;;;;26.57;24.83;;;14.00;99.90;;;;;;5029225;28;20478;-73
2022/10/02 06:42:34;;;;;;;26.80;24.97;;;14.00;99.90;;;;;;5050763;28;20452;-72
2022/10/02 06:45:10;;;;;;;26.10;24.70;;;14.00;99.90;;;;;;5050066;28;20457;-73
2022/10/02 06:47:58;;;;;;;26.00;24.50;;;14.00;99.90;;;;;;5050868;28;20443;-72
2022/10/02 06:50:41;;;;;;;26.77;25.10;;;14.00;99.90;;;;;;5050978;28;20506;-73
2022/10/02 06:53:29;;;;;;;26.20;24.70;;;14.00;99.90;;;;;;5050866;28;20456;-73
2022/10/02 06:56:10;;;;;;;28.10;25.57;;;14.10;99.90;;;;;;5045458;28;20496;-72
2022/10/02 06:58:50;;;;;;;26.67;25.17;;;14.20;99.90;;;;;;5030886;28;20885;-72
2022/10/02 07:01:27;;;;;;;27.20;25.20;;;14.20;99.90;;;;;;5030440;28;20457;-72
2022/10/02 07:04:15;;;;;;;26.83;24.97;;;14.20;99.90;;;;;;5030626;28;20455;-73
2022/10/02 07:06:53;;;;;;;27.47;25.60;;;14.30;99.90;;;;;;5030765;28;20472;-73
2022/10/02 07:09:41;;;;;;;26.67;24.97;;;14.20;99.90;;;;;;5029726;28;20449;-73
2022/10/02 07:12:25;;;;;;;27.37;25.40;;;14.20;99.90;;;;;;5016182;28;20453;-72
2022/10/02 07:15:09;;;;;;;26.13;24.83;;;14.30;99.90;;;;;;5030664;28;20941;-73
2022/10/02 07:17:48;;;;;;;27.23;25.37;;;14.40;99.90;;;;;;5010698;28;20508;-75
2022/10/02 07:20:29;;;;;;;27.40;25.83;;;14.50;99.90;;;;;;5030271;28;20518;-75
2022/10/02 07:23:17;;;;;;;28.10;26.37;;;14.50;99.90;;;;;;5030445;28;20539;-75
2022/10/02 07:26:02;;;;;;;27.90;26.20;;;14.60;99.90;;;;;;5030387;28;20943;-75
2022/10/02 07:28:37;;;;;;;28.03;26.47;;;14.70;99.90;;;;;;5030296;28;20460;-76
2022/10/02 07:31:13;;;;;;;29.47;27.50;;;14.80;99.90;;;;;;5030570;28;20468;-74
2022/10/02 07:33:52;;;;;;;28.10;26.50;;;14.80;99.90;;;;;;5031146;28;20487;-74
2022/10/02 07:36:31;;;;;;;30.10;27.80;;;14.90;99.90;;;;;;5030012;28;20488;-75
2022/10/02 07:39:10;;;;;;;28.10;26.40;;;14.90;99.90;;;;;;5030170;28;20454;-74
2022/10/02 07:42:12;;;;;;;29.20;27.40;;;14.90;99.90;;;;;;5031370;28;20484;-75
2022/10/02 07:45:02;;;;;;;30.00;28.20;;;14.90;99.90;;;;;;5027941;28;20453;-74
2022/10/02 07:47:49;;;;;;;30.43;28.30;;;15.00;99.90;;;;;;5030800;28;20445;-74
2022/10/02 07:50:22;;;;;;;28.70;26.83;;;15.00;99.90;;;;;;5029844;28;20484;-74
2022/10/02 07:52:58;;;;;;;29.47;27.30;;;15.00;99.90;;;;;;5029857;28;20453;-75
2022/10/02 07:55:26;;;;;;;28.63;27.10;;;15.10;99.90;;;;;;5030700;28;20453;-75
2022/10/02 07:58:03;;;;;;;29.33;27.70;;;15.10;99.90;;;;;;5030029;28;20500;-74
2022/10/02 08:00:32;;;;;;;29.87;28.07;;;15.20;99.90;;;;;;5029909;28;21024;-74
2022/10/02 08:03:01;;;;;;;28.00;26.27;;;15.30;99.90;;;;;;5029724;28;20449;-74
2022/10/02 08:05:31;;;;;;;29.30;27.10;;;15.30;99.90;;;;;;5031635;28;20460;-74
2022/10/02 08:08:04;;;;;;;28.43;26.37;;;15.20;99.90;;;;;;5029703;28;20445;-74
2022/10/02 08:10:36;;;;;;;28.37;26.77;;;15.30;99.90;;;;;;5029713;28;20453;-74
2022/10/02 08:13:09;;;;;;;27.83;26.23;;;15.20;99.90;;;;;;5029646;28;20452;-75
2022/10/02 08:15:37;;;;;;;28.73;26.70;;;15.30;99.90;;;;;;5029881;28;20448;-75
2022/10/02 08:18:12;;;;;;;28.83;26.80;;;15.20;99.90;;;;;;5029418;28;20575;-75
2022/10/02 08:20:43;;;;;;;27.93;26.43;;;15.30;99.90;;;;;;5032144;28;20453;-75
2022/10/02 08:23:20;;;;;;;29.70;27.47;;;15.40;99.90;;;;;;5033892;28;20504;-74
2022/10/02 08:25:52;;;;;;;28.80;27.10;;;15.50;99.90;;;;;;5033694;28;20453;-73
2022/10/02 08:28:24;;;;;;;28.83;26.97;;;15.50;99.90;;;;;;5033821;28;20505;-75
2022/10/02 08:30:51;;;;;;;27.50;25.70;;;15.50;99.90;;;;;;5033680;28;20464;-75
2022/10/02 08:33:20;;;;;;;27.60;25.90;;;15.50;99.90;;;;;;5033445;28;20476;-75
2022/10/02 08:36:00;;;;;;;26.20;24.70;;;15.80;99.90;;;;;;5033399;28;20533;-75
2022/10/02 08:38:39;;;;;;;25.40;23.93;;;16.10;99.90;;;;;;5033435;28;20436;-75
2022/10/02 08:41:37;;;;;;;25.27;23.73;;;16.30;99.90;;;;;;5033570;28;20452;-76
2022/10/02 08:44:43;;;;;;;24.00;22.77;;;16.30;99.90;;;;;;5031475;28;20938;-75
2022/10/02 08:47:47;;;;;;;24.07;22.83;;;16.50;99.90;;;;;;5033279;28;20444;-76
2022/10/02 08:50:42;;;;;;;23.10;21.97;;;16.70;99.90;;;;;;5031617;28;20465;-76
2022/10/02 08:56:38;;;;;;;20.97;19.50;;;17.40;99.90;;;;;;4956813;28;20556;-76
2022/10/02 08:59:37;;;;;;;17.67;16.47;;;17.70;99.90;;;;;;5013347;28;20453;-76
2022/10/02 09:03:01;;;;;;;18.80;17.67;;;17.80;99.90;;;;;;5012899;28;20457;-74
2022/10/02 09:06:04;;;;;;;19.10;17.83;;;17.40;99.90;;;;;;5012200;28;20454;-74
2022/10/02 09:09:07;;;;;;;17.43;16.37;;;17.90;99.90;;;;;;5012513;28;20452;-75
2022/10/02 09:12:04;;;;;;;17.20;16.20;;;18.10;99.90;;;;;;5012506;28;20451;-74
2022/10/02 09:14:50;;;;;;;15.73;14.80;;;18.30;99.90;;;;;;5012466;28;20460;-74
2022/10/02 09:17:35;;;;;;;14.83;14.03;;;18.70;99.90;;;;;;5012268;28;20485;-74
2022/10/02 09:20:27;;;;;;;15.53;14.53;;;18.80;99.90;;;;;;5012345;28;20811;-74
2022/10/02 09:23:42;;;;;;;15.40;14.60;;;18.90;99.90;;;;;;5012577;28;20454;-75
2022/10/02 09:26:32;;;;;;;14.33;13.47;;;18.90;99.90;;;;;;4994794;28;20441;-75
2022/10/02 09:29:33;;;;;;;15.30;14.37;;;19.00;99.90;;;;;;5012244;28;20450;-76
2022/10/02 09:32:42;;;;;;;14.90;14.20;;;18.60;99.90;;;;;;5011065;28;20498;-75
2022/10/02 09:35:35;;;;;;;14.33;13.73;;;18.90;99.90;;;;;;5012288;28;20512;-76
2022/10/02 09:38:30;;;;;;;14.60;13.93;;;19.20;99.90;;;;;;5011834;28;20852;-75
2022/10/02 09:41:34;;;;;;;15.20;14.37;;;20.10;99.90;;;;;;5012183;28;20460;-75
2022/10/02 09:44:55;;;;;;;14.03;13.23;;;20.70;99.90;;;;;;5011808;28;20817;-75
2022/10/02 09:47:52;;;;;;;14.37;13.57;;;20.60;99.90;;;;;;5012259;28;20549;-74
2022/10/02 09:50:45;;;;;;;14.43;13.57;;;20.00;99.90;;;;;;5011585;28;20520;-75
2022/10/02 09:53:35;;;;;;;17.53;16.60;;;19.10;99.90;;;;;;5011983;28;20579;-74
2022/10/02 09:56:34;;;;;;;17.87;16.47;;;18.70;99.90;;;;;;5011971;28;20555;-74
2022/10/02 09:59:35;;;;;;;16.53;15.63;;;17.80;99.90;;;;;;5020197;28;20455;-75
2022/10/02 10:02:22;;;;;;;16.43;15.63;;;17.20;99.90;;;;;;5038121;28;20444;-75
2022/10/02 10:05:11;;;;;;;18.40;17.00;;;16.80;99.90;;;;;;5039148;28;20444;-73
2022/10/02 10:08:15;;;;;;;15.93;15.13;;;16.70;99.90;;;;;;5039892;28;20459;-72
2022/10/02 10:11:09;;;;;;;15.57;14.97;;;16.50;99.90;;;;;;5041546;28;20538;-72
2022/10/02 10:14:20;;;;;;;17.13;16.23;;;16.10;99.90;;;;;;5040906;28;20475;-72
2022/10/02 10:17:19;;;;;;;22.97;22.07;;;16.00;99.90;;;;;;4976732;28;20495;-75
2022/10/02 10:20:09;;;;;;;27.27;26.07;;;15.90;99.90;;;;;;5039808;28;20440;-74
2022/10/02 10:23:07;;;;;;;29.97;28.57;;;15.60;99.90;;;;;;5038453;28;20907;-75
2022/10/02 10:25:50;;;;;;;29.93;28.40;;;15.50;99.90;;;;;;5039579;28;20811;-73
2022/10/02 10:29:06;;;;;;;29.50;28.20;;;15.50;99.90;;;;;;5039971;28;20708;-72
2022/10/02 10:32:15;;;;;;;29.67;28.13;;;15.50;99.90;;;;;;5038973;28;20473;-73
2022/10/02 10:35:15;;;;;;;30.30;28.80;;;15.50;99.90;;;;;;4994716;28;20534;-72
2022/10/02 10:41:03;;;;;;;30.10;28.67;;;15.80;99.90;;;;;;5040773;28;20565;-73
2022/10/02 10:44:07;;;;;;;29.57;28.10;;;16.00;99.90;;;;;;5034323;28;20460;-73
2022/10/02 10:46:58;;;;;;;29.63;28.20;;;16.30;99.90;;;;;;5038987;28;20953;-74
2022/10/02 10:50:03;;;;;;;27.73;26.43;;;16.40;99.90;;;;;;5039331;28;20913;-74
2022/10/02 10:52:50;;;;;;;27.40;26.20;;;16.40;99.90;;;;;;5038233;28;20543;-72
2022/10/02 10:55:19;;;;;;;27.60;26.30;;;16.50;99.90;;;;;;5040137;28;20523;-74
2022/10/02 10:58:03;;;;;;;28.03;26.63;;;16.40;99.90;;;;;;5036671;28;20484;-74
2022/10/02 11:00:42;;;;;;;25.37;24.27;;;16.10;99.90;;;;;;5038120;28;20818;-73
2022/10/02 11:03:45;;;;;;;26.00;24.70;;;15.80;99.90;;;;;;5037321;28;20444;-73
2022/10/02 11:06:50;;;;;;;24.43;23.40;;;15.90;99.90;;;;;;5038200;28;20433;-73
2022/10/02 11:09:49;;;;;;;23.17;22.10;;;16.00;99.90;;;;;;5022061;28;20556;-74
2022/10/02 11:13:10;;;;;;;23.30;22.30;;;15.70;99.90;;;;;;5033828;28;20448;-73
2022/10/02 11:15:59;;;;;;;22.10;21.03;;;15.80;99.90;;;;;;4997669;28;20455;-73
2022/10/02 11:18:46;;;;;;;20.90;20.10;;;15.90;99.90;;;;;;4994519;28;21000;-73
2022/10/02 11:21:30;;;;;;;19.27;18.47;;;16.20;99.90;;;;;;5032434;28;20449;-73
2022/10/02 11:24:26;;;;;;;18.40;17.70;;;16.10;99.90;;;;;;5039311;28;20532;-72
2022/10/02 11:27:15;;;;;;;17.17;16.40;;;16.20;99.90;;;;;;5030048;28;20460;-75
2022/10/02 11:30:12;;;;;;;15.40;14.80;;;16.50;99.90;;;;;;5040042;28;20451;-74
2022/10/02 11:33:13;;;;;;;14.90;14.30;;;16.50;99.90;;;;;;5038958;28;20455;-74
2022/10/02 11:36:07;;;;;;;14.97;14.47;;;16.50;99.90;;;;;;5028946;28;20447;-74
2022/10/02 11:39:10;;;;;;;15.73;15.13;;;16.60;99.90;;;;;;5038096;28;20508;-73
2022/10/02 11:41:58;;;;;;;14.67;14.17;;;16.60;99.90;;;;;;4967219;28;21119;-73
2022/10/02 11:44:41;;;;;;;15.37;14.87;;;16.70;99.90;;;;;;5035540;28;20433;-73
2022/10/02 11:47:51;;;;;;;15.53;14.73;;;16.70;99.90;;;;;;5036503;28;20448;-73
2022/10/02 11:50:58;;;;;;;16.37;15.77;;;16.60;99.90;;;;;;5032530;28;21049;-73
2022/10/02 11:53:48;;;;;;;15.40;14.90;;;16.50;99.90;;;;;;5035181;28;20445;-73
2022/10/02 11:56:44;;;;;;;15.57;14.90;;;16.30;99.90;;;;;;5037305;28;20943;-75
2022/10/02 11:59:37;;;;;;;15.90;15.30;;;16.20;99.90;;;;;;5036995;28;20453;-74
2022/10/02 12:02:11;;;;;;;15.23;14.73;;;16.10;99.90;;;;;;5037709;28;20531;-76
2022/10/02 12:04:48;;;;;;;15.27;14.70;;;16.00;99.90;;;;;;5037673;28;20446;-76
2022/10/02 12:07:33;;;;;;;14.17;13.67;;;15.90;99.90;;;;;;5037940;28;20541;-76
2022/10/02 12:10:15;;;;;;;14.90;14.40;;;15.90;99.90;;;;;;5039069;28;20448;-76
2022/10/02 12:12:52;;;;;;;15.70;15.10;;;15.90;99.90;;;;;;5039415;28;20446;-75
2022/10/02 12:15:29;;;;;;;16.23;15.40;;;15.90;99.90;;;;;;5039511;28;20440;-77
2022/10/02 12:18:18;;;;;;;17.70;17.00;;;16.00;99.90;;;;;;5039125;28;20491;-76
2022/10/02 12:26:58;;;;;;;21.00;20.20;;;16.40;99.90;;;;;;5037096;28;20787;-78
2022/10/02 12:29:45;;;;;;;20.70;19.90;;;16.50;99.90;;;;;;5037412;28;20452;-76
2022/10/02 12:32:34;;;;;;;20.33;19.53;;;16.40;99.90;;;;;;5034540;28;20472;-76
2022/10/02 12:35:18;;;;;;;19.83;19.00;;;16.30;99.90;;;;;;5038704;28;20441;-76
2022/10/02 12:37:56;;;;;;;28.50;27.30;;;16.20;99.90;;;;;;5034805;28;20476;-78
2022/10/02 12:40:31;;;;;;;31.67;30.27;;;16.20;99.90;;;;;;5036797;28;20455;-79
2022/10/02 12:43:24;;;;;;;31.23;29.83;;;16.10;99.90;;;;;;5037638;28;20497;-86
2022/10/02 12:46:15;;;;;;;34.40;32.70;;;16.00;99.90;;;;;;5036781;28;20496;-84
2022/10/02 12:49:12;;;;;;;33.30;31.70;;;15.80;99.90;;;;;;5038990;28;20860;-83
2022/10/02 12:51:56;;;;;;;33.30;31.77;;;15.70;99.90;;;;;;5038597;28;20441;-80
2022/10/02 12:54:51;;;;;;;33.97;32.27;;;15.90;99.90;;;;;;5039257;28;20439;-79
2022/10/02 12:57:54;;;;;;;32.73;31.23;;;15.80;99.90;;;;;;5037876;28;20437;-80
2022/10/02 13:00:24;;;;;;;31.93;30.33;;;15.90;99.90;;;;;;5035959;28;20487;-81
2022/10/02 13:03:24;;;;;;;30.60;29.30;;;15.80;99.90;;;;;;5038193;28;20464;-81
2022/10/02 13:06:18;;;;;;;31.00;29.70;;;15.70;99.90;;;;;;5037148;28;20499;-80
2022/10/02 13:09:17;;;;;;;30.73;29.33;;;15.40;99.90;;;;;;5042783;28;20440;-79
2022/10/02 13:11:57;;;;;;;28.73;27.33;;;15.40;99.90;;;;;;5001780;28;20805;-80
2022/10/02 13:14:41;;;;;;;29.30;28.00;;;15.10;99.90;;;;;;5043416;28;20890;-80
2022/10/02 13:17:22;;;;;;;29.13;27.93;;;15.10;99.90;;;;;;5041203;28;20452;-77
2022/10/02 13:20:00;;;;;;;29.47;28.17;;;15.20;99.90;;;;;;5038866;28;20444;-78
2022/10/02 13:22:39;;;;;;;30.37;29.07;;;15.40;99.90;;;;;;5038040;28;20433;-76
2022/10/02 13:25:37;;;;;;;32.53;30.97;;;15.50;99.90;;;;;;5042926;28;20448;-76
2022/10/02 13:28:32;;;;;;;31.70;30.00;;;15.40;99.90;;;;;;5042222;28;20440;-74
2022/10/02 13:31:08;;;;;;;30.70;29.30;;;15.40;99.90;;;;;;5041191;28;20457;-75
2022/10/02 13:33:59;;;;;;;30.93;29.63;;;15.40;99.90;;;;;;5045307;28;20791;-76
2022/10/02 13:36:39;;;;;;;30.50;29.10;;;15.50;99.90;;;;;;5051158;28;20459;-76
2022/10/02 13:39:32;;;;;;;31.47;29.97;;;15.70;99.90;;;;;;5049493;28;20483;-77
2022/10/02 13:42:16;;;;;;;31.73;30.33;;;15.90;99.90;;;;;;5050835;28;20456;-75
2022/10/02 13:44:50;;;;;;;32.20;30.80;;;16.10;99.90;;;;;;5051171;28;20813;-75
2022/10/02 13:47:31;;;;;;;33.80;32.17;;;16.00;99.90;;;;;;5051035;28;20483;-75
2022/10/02 13:50:12;;;;;;;33.57;31.97;;;16.20;99.90;;;;;;5050991;28;20822;-75
2022/10/02 13:52:49;;;;;;;33.90;32.30;;;16.30;99.90;;;;;;5051359;28;20446;-75
2022/10/02 13:55:24;;;;;;;34.00;32.40;;;16.20;99.90;;;;;;5050753;28;20452;-76
2022/10/02 13:58:07;;;;;;;33.50;31.80;;;16.10;99.90;;;;;;5050835;28;20487;-76
2022/10/02 14:01:00;;;;;;;34.03;32.50;;;16.10;99.90;;;;;;5050712;28;20456;-75
2022/10/02 14:03:40;;;;;;;32.87;31.47;;;15.90;99.90;;;;;;5050529;28;20455;-76
2022/10/02 14:06:18;;;;;;;33.83;32.33;;;15.90;99.90;;;;;;5050949;28;20448;-75
2022/10/02 14:09:14;;;;;;;33.70;32.20;;;15.90;99.90;;;;;;5050531;28;20448;-75
2022/10/02 14:11:55;;;;;;;33.47;31.87;;;16.10;99.90;;;;;;5050743;28;20452;-75
2022/10/02 14:14:38;;;;;;;32.70;31.20;;;16.10;99.90;;;;;;5050610;28;20517;-75
2022/10/02 14:17:18;;;;;;;31.90;30.60;;;16.10;99.90;;;;;;5050017;28;20559;-76
2022/10/02 14:20:06;;;;;;;32.70;31.20;;;16.00;99.90;;;;;;5050086;28;20487;-76
2022/10/02 14:22:48;;;;;;;32.10;30.67;;;15.80;99.90;;;;;;5050185;28;21002;-76
2022/10/02 14:25:36;;;;;;;33.50;32.00;;;15.70;99.90;;;;;;5050638;28;20805;-76
2022/10/02 14:28:15;;;;;;;32.90;31.40;;;15.60;99.90;;;;;;5050521;28;20810;-75
2022/10/02 14:31:09;;;;;;;32.90;30.73;;;15.60;99.90;;;;;;5050344;28;20495;-74
2022/10/02 14:33:52;;;;;;;31.80;30.30;;;15.60;99.90;;;;;;5039692;28;20499;-76
2022/10/02 14:36:31;;;;;;;32.70;30.87;;;15.60;99.90;;;;;;5050355;28;20471;-75
2022/10/02 14:39:12;;;;;;;32.13;30.50;;;15.70;99.90;;;;;;5050208;28;20479;-76
2022/10/02 14:42:18;;;;;;;31.80;30.40;;;15.80;99.90;;;;;;5050449;28;20812;-76
2022/10/02 14:44:59;;;;;;;32.57;31.17;;;15.90;99.90;;;;;;5049370;28;20475;-75
2022/10/02 14:47:50;;;;;;;29.50;28.20;;;15.80;99.90;;;;;;5050297;28;20542;-74
2022/10/02 14:50:50;;;;;;;31.90;30.50;;;15.80;99.90;;;;;;5049880;28;20440;-75
2022/10/02 14:53:49;;;;;;;32.00;30.50;;;16.00;99.90;;;;;;5049976;28;20452;-75
2022/10/02 14:56:45;;;;;;;32.53;30.93;;;15.80;99.90;;;;;;5049520;28;20514;-75
2022/10/02 14:59:47;;;;;;;33.10;31.60;;;15.70;99.90;;;;;;5049446;28;20510;-75
2022/10/02 15:02:31;;;;;;;32.90;31.40;;;15.90;99.90;;;;;;5024607;28;20470;-75
2022/10/02 15:05:11;;;;;;;32.00;30.60;;;15.90;99.90;;;;;;5049642;28;20818;-75
2022/10/02 15:07:39;;;;;;;32.40;30.90;;;15.70;99.90;;;;;;5049914;28;20525;-75
2022/10/02 15:10:15;;;;;;;32.03;30.63;;;15.60;99.90;;;;;;5049530;28;20451;-74
2022/10/02 15:12:49;;;;;;;31.70;30.30;;;15.50;99.90;;;;;;5049448;28;20467;-75
2022/10/02 15:15:22;;;;;;;31.97;30.47;;;15.20;99.90;;;;;;5049348;28;20459;-76
2022/10/02 15:18:10;;;;;;;32.40;30.80;;;15.10;99.90;;;;;;5049510;28;20444;-76
2022/10/02 15:20:47;;;;;;;33.50;31.80;;;15.10;99.90;;;;;;5049729;28;20487;-76
2022/10/02 15:23:24;;;;;;;33.00;31.40;;;15.10;99.90;;;;;;5049387;28;20463;-77
2022/10/02 15:26:23;;;;;;;32.17;30.47;;;15.00;99.90;;;;;;5049905;28;20486;-80